sensor_id;sensor_type;location;lat;lon;timestamp;temperature;humidity
5210;DHT22;2624;48.048;11.706;2023-04-15T00:01:06;4.50;99.90
5210;DHT22;2624;48.048;11.706;2023-04-15T00:06:08;4.60;99.90
5210;DHT22;2624;48.048;11.706;2023-04-15T00:11:10;4.50;99.90
5210;DHT22;2624;48.048;11.706;2023-04-15T00:16:13;4.50;99.90
5210;DHT22;2624;48.048;11.706;2023-04-15T00:21:15;4.50;99.90
5210;DHT22;2624;48.048;11.706;2023-04-15T00:26:17;4.50;99.90
5210;DHT22;2624;48.048;11.706;2023-04-15T00:31:21;4.50;99.90
5210;DHT22;2624;48.048;11.706;2023-04-15T00:36:23;4.40;99.90
5210;DHT22;2624;48.048;11.706;2023-04-15T00:41:25;4.50;99.90
5210;DHT22;2624;48.048;11.706;2023-04-15T00:46:29;4.40;99.90
5210;DHT22;2624;48.048;11.706;2023-04-15T00:51:32;4.50;99.90
5210;DHT22;2624;48.048;11.706;2023-04-15T00:56:38;4.40;99.90
5210;DHT22;2624;48.048;11.706;2023-04-15T01:01:42;4.40;99.90
5210;DHT22;2624;48.048;11.706;2023-04-15T01:06:44;4.50;99.90
5210;DHT22;2624;48.048;11.706;2023-04-15T01:11:46;4.60;99.90
5210;DHT22;2624;48.048;11.706;2023-04-15T01:16:49;4.50;99.90
5210;DHT22;2624;48.048;11.706;2023-04-15T01:21:51;4.50;99.90
5210;DHT22;2624;48.048;11.706;2023-04-15T01:26:54;4.60;99.90
5210;DHT22;2624;48.048;11.706;2023-04-15T01:31:56;4.60;99.90
5210;DHT22;2624;48.048;11.706;2023-04-15T01:36:58;4.70;99.90
5210;DHT22;2624;48.048;11.706;2023-04-15T01:42:01;4.60;99.90
5210;DHT22;2624;48.048;11.706;2023-04-15T01:47:03;4.60;99.90
5210;DHT22;2624;48.048;11.706;2023-04-15T01:52:06;4.60;99.90
5210;DHT22;2624;48.048;11.706;2023-04-15T01:57:09;4.60;99.90
5210;DHT22;2624;48.048;11.706;2023-04-15T02:02:11;4.60;99.90
5210;DHT22;2624;48.048;11.706;2023-04-15T02:07:13;4.70;99.90
5210;DHT22;2624;48.048;11.706;2023-04-15T02:12:16;4.80;99.90
5210;DHT22;2624;48.048;11.706;2023-04-15T02:17:18;4.70;99.90
5210;DHT22;2624;48.048;11.706;2023-04-15T02:22:20;4.70;99.90
5210;DHT22;2624;48.048;11.706;2023-04-15T02:27:23;4.60;99.90
5210;DHT22;2624;48.048;11.706;2023-04-15T02:32:24;4.60;99.90
5210;DHT22;2624;48.048;11.706;2023-04-15T02:37:26;4.60;99.90
5210;DHT22;2624;48.048;11.706;2023-04-15T02:42:31;4.50;99.90
5210;DHT22;2624;48.048;11.706;2023-04-15T02:47:33;4.60;99.90
5210;DHT22;2624;48.048;11.706;2023-04-15T02:52:35;4.60;99.90
5210;DHT22;2624;48.048;11.706;2023-04-15T02:57:38;4.60;99.90
5210;DHT22;2624;48.048;11.706;2023-04-15T03:02:40;4.60;99.90
5210;DHT22;2624;48.048;11.706;2023-04-15T03:07:42;4.50;99.90
5210;DHT22;2624;48.048;11.706;2023-04-15T03:12:45;4.60;99.90
5210;DHT22;2624;48.048;11.706;2023-04-15T03:17:47;4.70;99.90
5210;DHT22;2624;48.048;11.706;2023-04-15T03:22:50;4.80;99.90
5210;DHT22;2624;48.048;11.706;2023-04-15T03:27:53;4.80;99.90
5210;DHT22;2624;48.048;11.706;2023-04-15T03:32:54;4.80;99.90
5210;DHT22;2624;48.048;11.706;2023-04-15T03:37:56;4.80;99.90
5210;DHT22;2624;48.048;11.706;2023-04-15T03:42:59;4.80;99.90
5210;DHT22;2624;48.048;11.706;2023-04-15T03:48:01;4.70;99.90
5210;DHT22;2624;48.048;11.706;2023-04-15T03:53:03;4.70;99.90
5210;DHT22;2624;48.048;11.706;2023-04-15T03:58:06;4.60;99.90
5210;DHT22;2624;48.048;11.706;2023-04-15T04:03:09;4.60;99.90
5210;DHT22;2624;48.048;11.706;2023-04-15T04:08:11;4.60;99.90
5210;DHT22;2624;48.048;11.706;2023-04-15T04:13:17;4.70;99.90
5210;DHT22;2624;48.048;11.706;2023-04-15T04:18:18;4.80;99.90
5210;DHT22;2624;48.048;11.706;2023-04-15T04:23:20;4.80;99.90
5210;DHT22;2624;48.048;11.706;2023-04-15T04:28:23;4.70;99.90
5210;DHT22;2624;48.048;11.706;2023-04-15T04:33:25;4.70;99.90
5210;DHT22;2624;48.048;11.706;2023-04-15T04:38:27;4.70;99.90
5210;DHT22;2624;48.048;11.706;2023-04-15T04:43:30;4.60;99.90
5210;DHT22;2624;48.048;11.706;2023-04-15T04:48:32;4.50;99.90
5210;DHT22;2624;48.048;11.706;2023-04-15T04:53:34;4.60;99.90
5210;DHT22;2624;48.048;11.706;2023-04-15T04:58:38;4.60;99.90
5210;DHT22;2624;48.048;11.706;2023-04-15T05:03:40;4.60;99.90
5210;DHT22;2624;48.048;11.706;2023-04-15T05:08:42;4.50;99.90
5210;DHT22;2624;48.048;11.706;2023-04-15T05:13:45;4.50;99.90
5210;DHT22;2624;48.048;11.706;2023-04-15T05:18:46;4.60;99.90
5210;DHT22;2624;48.048;11.706;2023-04-15T05:23:48;4.70;99.90
5210;DHT22;2624;48.048;11.706;2023-04-15T05:28:52;4.60;99.90
5210;DHT22;2624;48.048;11.706;2023-04-15T05:33:53;4.60;99.90
5210;DHT22;2624;48.048;11.706;2023-04-15T05:38:55;4.50;99.90
5210;DHT22;2624;48.048;11.706;2023-04-15T05:43:58;4.60;99.90
5210;DHT22;2624;48.048;11.706;2023-04-15T05:49:00;4.60;99.90
5210;DHT22;2624;48.048;11.706;2023-04-15T05:54:02;4.60;99.90
5210;DHT22;2624;48.048;11.706;2023-04-15T05:59:05;4.60;99.90
5210;DHT22;2624;48.048;11.706;2023-04-15T06:04:08;4.60;99.90
5210;DHT22;2624;48.048;11.706;2023-04-15T06:09:10;4.50;99.90
5210;DHT22;2624;48.048;11.706;2023-04-15T06:14:14;4.60;99.90
5210;DHT22;2624;48.048;11.706;2023-04-15T06:19:15;4.60;99.90
5210;DHT22;2624;48.048;11.706;2023-04-15T06:24:17;4.50;99.90
5210;DHT22;2624;48.048;11.706;2023-04-15T06:29:21;4.60;99.90
5210;DHT22;2624;48.048;11.706;2023-04-15T06:34:22;4.60;99.90
5210;DHT22;2624;48.048;11.706;2023-04-15T06:39:24;4.70;99.90
5210;DHT22;2624;48.048;11.706;2023-04-15T06:44:28;4.70;99.90
5210;DHT22;2624;48.048;11.706;2023-04-15T06:49:30;4.80;99.90
5210;DHT22;2624;48.048;11.706;2023-04-15T06:54:33;4.60;99.90
5210;DHT22;2624;48.048;11.706;2023-04-15T06:59:36;4.70;99.90
5210;DHT22;2624;48.048;11.706;2023-04-15T07:04:38;4.80;99.90
5210;DHT22;2624;48.048;11.706;2023-04-15T07:09:40;4.80;99.90
5210;DHT22;2624;48.048;11.706;2023-04-15T07:14:43;4.90;99.90
5210;DHT22;2624;48.048;11.706;2023-04-15T07:19:45;4.90;99.90
5210;DHT22;2624;48.048;11.706;2023-04-15T07:24:47;4.90;99.90
5210;DHT22;2624;48.048;11.706;2023-04-15T07:29:50;5.00;99.90
5210;DHT22;2624;48.048;11.706;2023-04-15T07:34:52;5.00;99.90
5210;DHT22;2624;48.048;11.706;2023-04-15T07:39:54;5.10;99.90
5210;DHT22;2624;48.048;11.706;2023-04-15T07:44:57;5.10;99.90
5210;DHT22;2624;48.048;11.706;2023-04-15T07:49:58;5.10;99.90
5210;DHT22;2624;48.048;11.706;2023-04-15T07:55:01;5.20;99.90
5210;DHT22;2624;48.048;11.706;2023-04-15T08:00:06;5.30;99.90
5210;DHT22;2624;48.048;11.706;2023-04-15T08:05:08;5.30;99.90
5210;DHT22;2624;48.048;11.706;2023-04-15T08:10:10;5.40;99.90
5210;DHT22;2624;48.048;11.706;2023-04-15T08:15:14;5.40;99.90
5210;DHT22;2624;48.048;11.706;2023-04-15T08:20:16;5.40;99.90
5210;DHT22;2624;48.048;11.706;2023-04-15T08:25:18;5.50;99.90
5210;DHT22;2624;48.048;11.706;2023-04-15T08:30:22;5.60;99.90
5210;DHT22;2624;48.048;11.706;2023-04-15T08:35:24;5.60;99.90
5210;DHT22;2624;48.048;11.706;2023-04-15T08:40:30;5.70;99.90
5210;DHT22;2624;48.048;11.706;2023-04-15T08:45:38;5.80;99.90
5210;DHT22;2624;48.048;11.706;2023-04-15T08:50:40;5.80;99.90
5210;DHT22;2624;48.048;11.706;2023-04-15T08:55:42;5.80;99.90
5210;DHT22;2624;48.048;11.706;2023-04-15T09:00:46;5.80;99.90
5210;DHT22;2624;48.048;11.706;2023-04-15T09:05:49;5.80;99.90
5210;DHT22;2624;48.048;11.706;2023-04-15T09:10:50;5.80;99.90
5210;DHT22;2624;48.048;11.706;2023-04-15T09:15:54;5.90;99.90
5210;DHT22;2624;48.048;11.706;2023-04-15T09:21:03;6.00;99.90
5210;DHT22;2624;48.048;11.706;2023-04-15T09:26:06;6.00;99.90
5210;DHT22;2624;48.048;11.706;2023-04-15T09:31:09;6.10;99.90
5210;DHT22;2624;48.048;11.706;2023-04-15T09:36:11;6.10;99.90
5210;DHT22;2624;48.048;11.706;2023-04-15T09:41:16;6.10;99.90
5210;DHT22;2624;48.048;11.706;2023-04-15T09:46:39;6.10;99.90
5210;DHT22;2624;48.048;11.706;2023-04-15T09:51:41;6.10;99.90
5210;DHT22;2624;48.048;11.706;2023-04-15T09:56:44;6.20;99.90
5210;DHT22;2624;48.048;11.706;2023-04-15T10:01:47;6.20;99.90
5210;DHT22;2624;48.048;11.706;2023-04-15T10:06:49;6.20;99.90
5210;DHT22;2624;48.048;11.706;2023-04-15T10:11:51;6.20;99.90
5210;DHT22;2624;48.048;11.706;2023-04-15T10:16:55;6.10;99.90
5210;DHT22;2624;48.048;11.706;2023-04-15T10:22:00;6.10;99.90
5210;DHT22;2624;48.048;11.706;2023-04-15T10:27:03;6.30;99.90
5210;DHT22;2624;48.048;11.706;2023-04-15T10:32:08;6.20;99.90
5210;DHT22;2624;48.048;11.706;2023-04-15T10:37:10;6.20;99.90
5210;DHT22;2624;48.048;11.706;2023-04-15T10:42:13;6.30;99.90
5210;DHT22;2624;48.048;11.706;2023-04-15T10:47:18;6.30;99.90
5210;DHT22;2624;48.048;11.706;2023-04-15T10:52:22;6.30;99.90
5210;DHT22;2624;48.048;11.706;2023-04-15T10:57:33;6.30;99.90
5210;DHT22;2624;48.048;11.706;2023-04-15T11:02:45;6.30;99.90
5210;DHT22;2624;48.048;11.706;2023-04-15T11:07:52;6.40;99.90
5210;DHT22;2624;48.048;11.706;2023-04-15T11:12:57;6.40;99.90
5210;DHT22;2624;48.048;11.706;2023-04-15T11:18:09;6.50;99.90
5210;DHT22;2624;48.048;11.706;2023-04-15T11:23:11;6.60;99.90
5210;DHT22;2624;48.048;11.706;2023-04-15T11:28:13;6.50;99.90
5210;DHT22;2624;48.048;11.706;2023-04-15T11:33:16;6.60;99.90
5210;DHT22;2624;48.048;11.706;2023-04-15T11:38:18;6.60;99.90
5210;DHT22;2624;48.048;11.706;2023-04-15T11:43:21;6.60;99.90
5210;DHT22;2624;48.048;11.706;2023-04-15T11:48:25;6.70;99.90
5210;DHT22;2624;48.048;11.706;2023-04-15T11:53:36;6.60;99.90
5210;DHT22;2624;48.048;11.706;2023-04-15T11:58:38;6.60;99.90
5210;DHT22;2624;48.048;11.706;2023-04-15T12:03:42;6.60;99.90
5210;DHT22;2624;48.048;11.706;2023-04-15T12:09:08;6.60;99.90
5210;DHT22;2624;48.048;11.706;2023-04-15T12:14:23;6.70;99.90
5210;DHT22;2624;48.048;11.706;2023-04-15T12:19:27;6.70;99.90
5210;DHT22;2624;48.048;11.706;2023-04-15T12:24:30;6.70;99.90
5210;DHT22;2624;48.048;11.706;2023-04-15T12:29:34;6.70;99.90
5210;DHT22;2624;48.048;11.706;2023-04-15T12:34:38;6.70;99.90
5210;DHT22;2624;48.048;11.706;2023-04-15T12:39:41;6.70;99.90
5210;DHT22;2624;48.048;11.706;2023-04-15T12:44:43;6.70;99.90
5210;DHT22;2624;48.048;11.706;2023-04-15T12:49:46;6.70;99.90
5210;DHT22;2624;48.048;11.706;2023-04-15T12:54:48;6.80;99.90
5210;DHT22;2624;48.048;11.706;2023-04-15T12:59:50;6.80;99.90
5210;DHT22;2624;48.048;11.706;2023-04-15T13:04:53;6.80;99.90
5210;DHT22;2624;48.048;11.706;2023-04-15T13:09:55;6.90;99.90
5210;DHT22;2624;48.048;11.706;2023-04-15T13:14:57;6.90;99.90
5210;DHT22;2624;48.048;11.706;2023-04-15T13:20:00;6.90;99.90
5210;DHT22;2624;48.048;11.706;2023-04-15T13:25:02;6.90;99.90
5210;DHT22;2624;48.048;11.706;2023-04-15T13:30:05;6.90;99.90
5210;DHT22;2624;48.048;11.706;2023-04-15T13:35:08;6.90;99.90
5210;DHT22;2624;48.048;11.706;2023-04-15T13:40:10;6.90;99.90
5210;DHT22;2624;48.048;11.706;2023-04-15T13:45:12;6.90;99.90
5210;DHT22;2624;48.048;11.706;2023-04-15T13:50:15;7.00;99.90
5210;DHT22;2624;48.048;11.706;2023-04-15T13:55:17;6.90;99.90
5210;DHT22;2624;48.048;11.706;2023-04-15T14:00:19;6.90;99.90
5210;DHT22;2624;48.048;11.706;2023-04-15T14:05:22;6.90;99.90
5210;DHT22;2624;48.048;11.706;2023-04-15T14:10:24;6.90;99.90
5210;DHT22;2624;48.048;11.706;2023-04-15T14:15:26;6.90;99.90
5210;DHT22;2624;48.048;11.706;2023-04-15T14:20:29;6.90;99.90
5210;DHT22;2624;48.048;11.706;2023-04-15T14:25:30;6.90;99.90
5210;DHT22;2624;48.048;11.706;2023-04-15T14:30:32;6.90;99.90
5210;DHT22;2624;48.048;11.706;2023-04-15T14:35:35;6.90;99.90
5210;DHT22;2624;48.048;11.706;2023-04-15T14:40:37;6.90;99.90
5210;DHT22;2624;48.048;11.706;2023-04-15T14:45:39;6.90;99.90
5210;DHT22;2624;48.048;11.706;2023-04-15T14:50:43;7.00;99.90
5210;DHT22;2624;48.048;11.706;2023-04-15T14:55:44;7.00;99.90
5210;DHT22;2624;48.048;11.706;2023-04-15T15:00:46;7.00;99.90
5210;DHT22;2624;48.048;11.706;2023-04-15T15:05:49;7.00;99.90
5210;DHT22;2624;48.048;11.706;2023-04-15T15:10:51;7.00;99.90
5210;DHT22;2624;48.048;11.706;2023-04-15T15:15:53;7.00;99.90
5210;DHT22;2624;48.048;11.706;2023-04-15T15:20:56;7.00;99.90
5210;DHT22;2624;48.048;11.706;2023-04-15T15:25:58;7.00;99.90
5210;DHT22;2624;48.048;11.706;2023-04-15T15:31:00;7.00;99.90
5210;DHT22;2624;48.048;11.706;2023-04-15T15:36:03;7.00;99.90
5210;DHT22;2624;48.048;11.706;2023-04-15T15:41:05;7.00;99.90
5210;DHT22;2624;48.048;11.706;2023-04-15T15:46:07;7.00;99.90
5210;DHT22;2624;48.048;11.706;2023-04-15T15:51:10;6.90;99.90
5210;DHT22;2624;48.048;11.706;2023-04-15T15:56:12;6.90;99.90
5210;DHT22;2624;48.048;11.706;2023-04-15T16:01:14;6.90;99.90
5210;DHT22;2624;48.048;11.706;2023-04-15T16:06:17;6.90;99.90
5210;DHT22;2624;48.048;11.706;2023-04-15T16:11:19;6.90;99.90
5210;DHT22;2624;48.048;11.706;2023-04-15T16:16:20;6.90;99.90
5210;DHT22;2624;48.048;11.706;2023-04-15T16:21:24;6.90;99.90
5210;DHT22;2624;48.048;11.706;2023-04-15T16:26:26;6.90;99.90
5210;DHT22;2624;48.048;11.706;2023-04-15T16:31:28;6.90;99.90
5210;DHT22;2624;48.048;11.706;2023-04-15T16:36:33;6.90;99.90
5210;DHT22;2624;48.048;11.706;2023-04-15T16:41:34;6.90;99.90
5210;DHT22;2624;48.048;11.706;2023-04-15T16:46:37;6.90;99.90
5210;DHT22;2624;48.048;11.706;2023-04-15T16:51:40;6.80;99.90
5210;DHT22;2624;48.048;11.706;2023-04-15T16:56:42;6.80;99.90
5210;DHT22;2624;48.048;11.706;2023-04-15T17:01:44;6.80;99.90
5210;DHT22;2624;48.048;11.706;2023-04-15T17:06:47;6.80;99.90
5210;DHT22;2624;48.048;11.706;2023-04-15T17:11:49;6.80;99.90
5210;DHT22;2624;48.048;11.706;2023-04-15T17:16:51;6.80;99.90
5210;DHT22;2624;48.048;11.706;2023-04-15T17:21:54;6.70;99.90
5210;DHT22;2624;48.048;11.706;2023-04-15T17:26:57;6.70;99.90
5210;DHT22;2624;48.048;11.706;2023-04-15T17:31:59;6.70;99.90
5210;DHT22;2624;48.048;11.706;2023-04-15T17:37:02;6.70;99.90
5210;DHT22;2624;48.048;11.706;2023-04-15T17:42:04;6.60;99.90
5210;DHT22;2624;48.048;11.706;2023-04-15T17:47:06;6.60;99.90
5210;DHT22;2624;48.048;11.706;2023-04-15T17:52:09;6.60;99.90
5210;DHT22;2624;48.048;11.706;2023-04-15T17:57:11;6.50;99.90
5210;DHT22;2624;48.048;11.706;2023-04-15T18:02:13;6.50;99.90
5210;DHT22;2624;48.048;11.706;2023-04-15T18:07:16;6.50;99.90
5210;DHT22;2624;48.048;11.706;2023-04-15T18:12:18;6.50;99.90
5210;DHT22;2624;48.048;11.706;2023-04-15T18:17:20;6.50;99.90
5210;DHT22;2624;48.048;11.706;2023-04-15T18:22:23;6.50;99.90
5210;DHT22;2624;48.048;11.706;2023-04-15T18:27:25;6.50;99.90
5210;DHT22;2624;48.048;11.706;2023-04-15T18:32:27;6.50;99.90
5210;DHT22;2624;48.048;11.706;2023-04-15T18:37:33;6.40;99.90
5210;DHT22;2624;48.048;11.706;2023-04-15T18:42:35;6.40;99.90
5210;DHT22;2624;48.048;11.706;2023-04-15T18:47:37;6.30;99.90
5210;DHT22;2624;48.048;11.706;2023-04-15T18:52:40;6.30;99.90
5210;DHT22;2624;48.048;11.706;2023-04-15T18:57:41;6.30;99.90
5210;DHT22;2624;48.048;11.706;2023-04-15T19:02:44;6.30;99.90
5210;DHT22;2624;48.048;11.706;2023-04-15T19:07:48;6.40;99.90
5210;DHT22;2624;48.048;11.706;2023-04-15T19:12:50;6.30;99.90
5210;DHT22;2624;48.048;11.706;2023-04-15T19:17:52;6.20;99.90
5210;DHT22;2624;48.048;11.706;2023-04-15T19:22:55;6.20;99.90
5210;DHT22;2624;48.048;11.706;2023-04-15T19:27:57;6.20;99.90
5210;DHT22;2624;48.048;11.706;2023-04-15T19:32:59;6.20;99.90
5210;DHT22;2624;48.048;11.706;2023-04-15T19:38:03;6.20;99.90
5210;DHT22;2624;48.048;11.706;2023-04-15T19:43:05;6.10;99.90
5210;DHT22;2624;48.048;11.706;2023-04-15T19:48:07;6.10;99.90
5210;DHT22;2624;48.048;11.706;2023-04-15T19:53:10;6.10;99.90
5210;DHT22;2624;48.048;11.706;2023-04-15T19:58:12;6.00;99.90
5210;DHT22;2624;48.048;11.706;2023-04-15T20:03:14;6.10;99.90
5210;DHT22;2624;48.048;11.706;2023-04-15T20:08:17;6.00;99.90
5210;DHT22;2624;48.048;11.706;2023-04-15T20:13:19;6.10;99.90
5210;DHT22;2624;48.048;11.706;2023-04-15T20:18:20;6.00;99.90
5210;DHT22;2624;48.048;11.706;2023-04-15T20:23:24;6.00;99.90
5210;DHT22;2624;48.048;11.706;2023-04-15T20:28:25;6.00;99.90
5210;DHT22;2624;48.048;11.706;2023-04-15T20:33:27;6.00;99.90
5210;DHT22;2624;48.048;11.706;2023-04-15T20:38:30;6.00;99.90
5210;DHT22;2624;48.048;11.706;2023-04-15T20:43:32;6.00;99.90
5210;DHT22;2624;48.048;11.706;2023-04-15T20:48:34;6.00;99.90
5210;DHT22;2624;48.048;11.706;2023-04-15T20:53:37;6.00;99.90
5210;DHT22;2624;48.048;11.706;2023-04-15T20:58:40;6.00;99.90
5210;DHT22;2624;48.048;11.706;2023-04-15T21:03:41;6.00;99.90
5210;DHT22;2624;48.048;11.706;2023-04-15T21:08:45;5.90;99.90
5210;DHT22;2624;48.048;11.706;2023-04-15T21:13:46;6.00;99.90
5210;DHT22;2624;48.048;11.706;2023-04-15T21:18:50;5.90;99.90
5210;DHT22;2624;48.048;11.706;2023-04-15T21:23:53;5.80;99.90
5210;DHT22;2624;48.048;11.706;2023-04-15T21:28:55;5.90;99.90
5210;DHT22;2624;48.048;11.706;2023-04-15T21:33:56;5.80;99.90
5210;DHT22;2624;48.048;11.706;2023-04-15T21:38:59;5.90;99.90
5210;DHT22;2624;48.048;11.706;2023-04-15T21:44:01;5.80;99.90
5210;DHT22;2624;48.048;11.706;2023-04-15T21:49:03;5.90;99.90
5210;DHT22;2624;48.048;11.706;2023-04-15T21:54:07;5.80;99.90
5210;DHT22;2624;48.048;11.706;2023-04-15T21:59:10;5.90;99.90
5210;DHT22;2624;48.048;11.706;2023-04-15T22:04:12;5.80;99.90
5210;DHT22;2624;48.048;11.706;2023-04-15T22:09:15;5.80;99.90
5210;DHT22;2624;48.048;11.706;2023-04-15T22:14:17;5.70;99.90
5210;DHT22;2624;48.048;11.706;2023-04-15T22:19:18;5.80;99.90
5210;DHT22;2624;48.048;11.706;2023-04-15T22:24:21;5.80;99.90
5210;DHT22;2624;48.048;11.706;2023-04-15T22:29:23;5.70;99.90
5210;DHT22;2624;48.048;11.706;2023-04-15T22:34:25;5.70;99.90
5210;DHT22;2624;48.048;11.706;2023-04-15T22:39:28;5.70;99.90
5210;DHT22;2624;48.048;11.706;2023-04-15T22:44:30;5.70;99.90
5210;DHT22;2624;48.048;11.706;2023-04-15T22:49:31;5.70;99.90
5210;DHT22;2624;48.048;11.706;2023-04-15T22:54:35;5.60;99.90
5210;DHT22;2624;48.048;11.706;2023-04-15T22:59:37;5.70;99.90
5210;DHT22;2624;48.048;11.706;2023-04-15T23:04:39;5.60;99.90
5210;DHT22;2624;48.048;11.706;2023-04-15T23:09:42;5.60;99.90
5210;DHT22;2624;48.048;11.706;2023-04-15T23:14:44;5.60;99.90
5210;DHT22;2624;48.048;11.706;2023-04-15T23:19:46;5.60;99.90
5210;DHT22;2624;48.048;11.706;2023-04-15T23:24:49;5.60;99.90
5210;DHT22;2624;48.048;11.706;2023-04-15T23:29:51;5.60;99.90
5210;DHT22;2624;48.048;11.706;2023-04-15T23:34:52;5.50;99.90
5210;DHT22;2624;48.048;11.706;2023-04-15T23:39:55;5.40;99.90
5210;DHT22;2624;48.048;11.706;2023-04-15T23:44:57;5.40;99.90
5210;DHT22;2624;48.048;11.706;2023-04-15T23:49:59;5.40;99.90
5210;DHT22;2624;48.048;11.706;2023-04-15T23:55:02;5.30;99.90
